Time;durP1;ratioP1;P1;durP2;ratioP2;P2;SDS_P1;SDS_P2;PMS_P1;PMS_P2;Temp;Humidity;BMP_temperature;BMP_pressure;BME280_temperature;BME280_humidity;BME280_pressure;Samples;Min_cycle;Max_cycle;Signal;HPM_P1;HPM_P2
2022/06/17 00:01:27;;;;;;;12.00;10.80;;;;;;;15.40;100.00;99124.96;105180;1271;75306;-73
2022/06/17 00:03:54;;;;;;;11.30;10.20;;;;;;;15.38;100.00;99135.21;105126;1271;69167;-73
2022/06/17 00:06:23;;;;;;;11.70;10.50;;;;;;;15.36;100.00;99126.69;105199;1271;73668;-73
2022/06/17 00:08:53;;;;;;;12.00;10.90;;;;;;;15.34;100.00;99128.14;105279;1269;61403;-73
2022/06/17 00:11:19;;;;;;;14.80;13.40;;;;;;;15.32;100.00;99137.77;105207;1271;61259;-74
2022/06/17 00:13:46;;;;;;;15.30;13.80;;;;;;;15.31;100.00;99128.97;105232;1271;61300;-73
2022/06/17 00:16:15;;;;;;;16.20;14.70;;;;;;;15.30;100.00;99119.58;105199;1271;61310;-74
2022/06/17 00:18:42;;;;;;;13.90;12.60;;;;;;;15.29;100.00;99125.92;105223;1271;73170;-74
2022/06/17 00:21:23;;;;;;;14.10;12.70;;;;;;;15.29;100.00;99120.89;105196;1271;61313;-73
2022/06/17 00:23:50;;;;;;;14.90;13.50;;;;;;;15.29;100.00;99118.72;105224;1271;61190;-74
2022/06/17 00:26:16;;;;;;;13.80;12.50;;;;;;;15.28;100.00;99110.77;105239;1271;75265;-73
2022/06/17 00:28:43;;;;;;;13.50;12.20;;;;;;;15.28;100.00;99104.16;105197;1271;61272;-74
2022/06/17 00:31:10;;;;;;;13.80;12.60;;;;;;;15.28;100.00;99101.67;105217;1271;74209;-74
2022/06/17 00:33:36;;;;;;;12.90;11.60;;;;;;;15.27;100.00;99094.55;104986;1271;61502;-73
2022/06/17 00:36:04;;;;;;;13.70;12.50;;;;;;;15.26;100.00;99094.51;105212;1271;61176;-73
2022/06/17 00:38:33;;;;;;;15.70;14.10;;;;;;;15.24;100.00;99100.76;105246;1271;75586;-74
2022/06/17 00:41:24;;;;;;;15.50;13.50;;;;;;;15.23;100.00;99103.84;104979;1271;67583;-73
2022/06/17 00:43:51;;;;;;;15.90;14.30;;;;;;;15.24;100.00;99107.20;105212;1271;73362;-74
2022/06/17 00:46:24;;;;;;;15.90;13.90;;;;;;;15.24;100.00;99108.95;105217;1271;61426;-73
2022/06/17 00:49:21;;;;;;;15.80;14.20;;;;;;;15.25;100.00;99114.45;105204;1271;61853;-73
2022/06/17 00:52:06;;;;;;;16.30;13.70;;;;;;;15.25;100.00;99113.16;105203;1270;75155;-73
2022/06/17 00:54:39;;;;;;;15.50;13.60;;;;;;;15.25;100.00;99114.05;105211;1271;67882;-73
2022/06/17 00:57:18;;;;;;;15.20;13.60;;;;;;;15.24;100.00;99114.86;105214;1269;72308;-73
2022/06/17 01:00:00;;;;;;;16.70;15.00;;;;;;;15.23;100.00;99112.83;105204;1271;61186;-73
2022/06/17 01:02:33;;;;;;;15.60;14.00;;;;;;;15.21;100.00;99115.99;105190;1271;62200;-73
2022/06/17 01:05:02;;;;;;;15.00;13.50;;;;;;;15.20;100.00;99116.86;105249;1271;74823;-73
2022/06/17 01:07:38;;;;;;;16.40;14.40;;;;;;;15.17;100.00;99124.78;105271;1271;70400;-73
2022/06/17 01:10:13;;;;;;;16.60;14.70;;;;;;;15.15;100.00;99130.14;105218;1271;73341;-73
2022/06/17 01:13:00;;;;;;;17.00;15.20;;;;;;;15.11;100.00;99129.02;105205;1270;61388;-73
2022/06/17 01:15:31;;;;;;;19.70;15.10;;;;;;;15.09;100.00;99131.32;104972;1271;61384;-73
2022/06/17 01:17:58;;;;;;;16.00;14.40;;;;;;;15.06;100.00;99138.59;105181;1271;76258;-74
2022/06/17 01:20:27;;;;;;;18.00;15.70;;;;;;;15.03;100.00;99139.52;105212;1271;70369;-74
2022/06/17 01:22:56;;;;;;;18.60;16.70;;;;;;;15.00;100.00;99141.02;105000;1274;72680;-74
2022/06/17 01:25:44;;;;;;;19.00;17.00;;;;;;;14.98;100.00;99144.96;105213;1271;61364;-73
2022/06/17 01:28:16;;;;;;;19.20;16.80;;;;;;;14.95;100.00;99148.45;105190;1271;61319;-74
2022/06/17 01:31:00;;;;;;;24.00;18.20;;;;;;;14.91;100.00;99153.77;105228;1271;73728;-73
2022/06/17 01:33:38;;;;;;;19.40;17.40;;;;;;;14.88;100.00;99156.67;105205;1271;70132;-73
2022/06/17 01:36:05;;;;;;;19.70;17.70;;;;;;;14.86;100.00;99156.86;105170;1271;74134;-73
2022/06/17 01:38:33;;;;;;;21.40;18.80;;;;;;;14.83;100.00;99161.00;105220;1271;61285;-73
2022/06/17 01:41:02;;;;;;;21.20;19.30;;;;;;;14.80;100.00;99160.06;105183;1271;62202;-73
2022/06/17 01:43:57;;;;;;;22.60;20.40;;;;;;;14.75;100.00;99157.05;105232;1271;75235;-73
2022/06/17 01:46:33;;;;;;;22.20;19.70;;;;;;;14.69;100.00;99158.06;105243;1270;69445;-74
2022/06/17 01:49:07;;;;;;;22.30;20.10;;;;;;;14.64;100.00;99156.85;105228;1271;74805;-72
2022/06/17 01:51:36;;;;;;;24.10;21.60;;;;;;;14.61;100.00;99161.39;104971;1274;61523;-73
2022/06/17 01:54:08;;;;;;;25.10;21.90;;;;;;;14.61;100.00;99163.24;105275;1271;61154;-73
2022/06/17 01:56:38;;;;;;;23.10;20.50;;;;;;;14.61;100.00;99164.27;105232;1271;76151;-73
2022/06/17 01:59:11;;;;;;;24.80;21.90;;;;;;;14.61;100.00;99170.52;105294;1271;70121;-73
2022/06/17 02:01:43;;;;;;;23.30;20.90;;;;;;;14.59;100.00;99176.02;105029;1271;73337;-74
2022/06/17 02:04:15;;;;;;;24.40;21.80;;;;;;;14.59;100.00;99173.88;105193;1271;61321;-73
2022/06/17 02:06:57;;;;;;;24.30;21.80;;;;;;;14.60;100.00;99174.92;105213;1271;61932;-73
2022/06/17 02:09:24;;;;;;;26.30;22.20;;;;;;;14.61;100.00;99178.73;105215;1271;75300;-73
2022/06/17 02:11:50;;;;;;;24.40;21.80;;;;;;;14.62;100.00;99175.23;105202;1271;69185;-73
2022/06/17 02:14:17;;;;;;;26.50;22.00;;;;;;;14.63;100.00;99179.45;105219;1271;73401;-74
2022/06/17 02:16:52;;;;;;;28.40;22.60;;;;;;;14.63;100.00;99184.80;105222;1271;61389;-74
2022/06/17 02:19:23;;;;;;;23.60;21.10;;;;;;;14.63;100.00;99192.52;105242;1271;61326;-73
2022/06/17 02:21:59;;;;;;;24.20;21.70;;;;;;;14.62;100.00;99194.72;105245;1271;75265;-73
2022/06/17 02:24:27;;;;;;;23.30;21.00;;;;;;;14.63;100.00;99203.08;105195;1271;69614;-73
2022/06/17 02:26:56;;;;;;;26.40;23.50;;;;;;;14.63;100.00;99201.79;105252;1271;74716;-73
2022/06/17 02:29:24;;;;;;;26.40;22.30;;;;;;;14.64;100.00;99200.47;105280;1269;61351;-73
2022/06/17 02:31:51;;;;;;;24.80;22.40;;;;;;;14.65;100.00;99202.37;105225;1271;61348;-72
2022/06/17 02:34:19;;;;;;;24.00;21.50;;;;;;;14.67;100.00;99206.15;105188;1271;74068;-73
2022/06/17 02:36:54;;;;;;;25.40;22.80;;;;;;;14.69;100.00;99205.24;105242;1271;70430;-72
2022/06/17 02:39:21;;;;;;;24.50;21.50;;;;;;;14.71;100.00;99206.00;105213;1271;72151;-73
2022/06/17 02:41:50;;;;;;;24.40;21.90;;;;;;;14.73;100.00;99204.63;105183;1271;61409;-73
2022/06/17 02:44:24;;;;;;;25.60;22.90;;;;;;;14.76;100.00;99211.92;105318;1271;61353;-73
2022/06/17 02:46:54;;;;;;;24.60;22.10;;;;;;;14.78;100.00;99206.70;105223;1271;75696;-73
2022/06/17 02:49:27;;;;;;;25.90;23.30;;;;;;;14.82;100.00;99207.11;105366;1271;70311;-74
2022/06/17 02:51:55;;;;;;;26.00;23.30;;;;;;;14.86;100.00;99213.59;105239;1271;73478;-73
2022/06/17 02:54:38;;;;;;;26.40;23.60;;;;;;;14.89;100.00;99212.59;105230;1271;61357;-73
2022/06/17 02:57:08;;;;;;;27.80;24.70;;;;;;;14.93;100.00;99214.60;105232;1271;61236;-74
2022/06/17 02:59:48;;;;;;;27.50;24.70;;;;;;;14.97;100.00;99215.34;105394;1271;75281;-74
2022/06/17 03:02:25;;;;;;;27.40;24.20;;;;;;;15.02;100.00;99218.35;105312;1271;69168;-73
2022/06/17 03:04:53;;;;;;;26.20;23.50;;;;;;;15.08;100.00;99216.08;105211;1271;74081;-73
2022/06/17 03:07:22;;;;;;;26.10;23.40;;;;;;;15.12;100.00;99223.05;104977;1271;313596;-73
2022/06/17 03:09:49;;;;;;;27.20;23.90;;;;;;;15.17;100.00;99223.07;105271;1271;61825;-75
2022/06/17 03:12:20;;;;;;;28.90;25.80;;;;;;;15.20;100.00;99221.71;105184;1271;76110;-72
2022/06/17 03:15:01;;;;;;;30.80;27.60;;;;;;;15.23;100.00;99217.92;105208;1271;69198;-73
2022/06/17 03:17:30;;;;;;;30.40;27.30;;;;;;;15.27;100.00;99222.91;105230;1271;73163;-73
2022/06/17 03:20:00;;;;;;;32.70;28.00;;;;;;;15.34;100.00;99223.21;105252;1271;61343;-73
2022/06/17 03:22:27;;;;;;;;;;;;;;;15.42;100.00;99228.27;105317;1271;61868;-73
2022/06/17 03:25:13;;;;;;;31.80;28.30;;;;;;;15.49;100.00;99228.63;105009;1272;74759;-73
2022/06/17 03:27:51;;;;;;;35.70;31.50;;;;;;;15.58;100.00;99232.17;105274;1271;69749;-73
2022/06/17 03:30:45;;;;;;;33.30;29.90;;;;;;;15.65;100.00;99228.54;105184;1271;73280;-73
2022/06/17 03:33:32;;;;;;;36.50;30.40;;;;;;;15.70;100.00;99240.70;104979;1271;61390;-73
2022/06/17 03:36:04;;;;;;;35.70;31.90;;;;;;;15.73;100.00;99241.67;105247;1271;61355;-73
2022/06/17 03:38:40;;;;;;;36.30;32.60;;;;;;;15.80;100.00;99252.92;105337;1271;74684;-73
2022/06/17 03:41:25;;;;;;;34.50;29.80;;;;;;;15.83;100.00;99254.84;105225;1271;69481;-73
2022/06/17 03:44:14;;;;;;;37.90;33.70;;;;;;;15.85;100.00;99259.10;105290;1271;73984;-73
2022/06/17 03:46:50;;;;;;;36.70;32.80;;;;;;;15.93;100.00;99258.05;105204;1271;61329;-73
2022/06/17 03:49:25;;;;;;;36.50;32.70;;;;;;;16.04;100.00;99255.92;105200;1271;61225;-73
2022/06/17 03:51:59;;;;;;;36.40;32.80;;;;;;;16.17;100.00;99258.16;105238;1271;76397;-73
2022/06/17 03:54:26;;;;;;;36.40;32.70;;;;;;;16.20;100.00;99259.89;105205;1270;70227;-73
2022/06/17 03:56:53;;;;;;;36.70;33.40;;;;;;;16.22;100.00;99265.59;105086;1271;74197;-74
2022/06/17 03:59:26;;;;;;;37.80;34.10;;;;;;;16.30;100.00;99264.98;105144;1271;61269;-72
2022/06/17 04:02:04;;;;;;;37.80;34.20;;;;;;;16.33;100.00;99263.14;105198;1271;61189;-72
2022/06/17 04:04:40;;;;;;;35.20;31.70;;;;;;;16.32;100.00;99268.75;105203;1270;75112;-74
2022/06/17 04:07:10;;;;;;;37.00;33.50;;;;;;;16.24;100.00;99275.67;105203;1271;70423;-72
2022/06/17 04:09:39;;;;;;;37.20;33.80;;;;;;;16.15;100.00;99272.33;105331;1271;73270;-73
2022/06/17 04:12:12;;;;;;;37.40;33.60;;;;;;;16.08;100.00;99269.90;105182;1271;61342;-73
2022/06/17 04:15:16;;;;;;;38.40;34.70;;;;;;;16.01;100.00;99274.23;105209;1271;61160;-74
2022/06/17 04:17:46;;;;;;;35.00;31.40;;;;;;;16.00;100.00;99271.84;105234;1271;74133;-74
2022/06/17 04:20:49;;;;;;;35.00;31.50;;;;;;;15.98;100.00;99274.66;105266;1271;69190;-74
2022/06/17 04:23:23;;;;;;;35.50;32.00;;;;;;;16.00;100.00;99290.48;105080;1271;74626;-73
2022/06/17 04:26:11;;;;;;;35.70;32.30;;;;;;;15.94;100.00;99299.19;105076;1271;61387;-75
2022/06/17 04:28:49;;;;;;;35.50;31.90;;;;;;;15.94;100.00;99293.88;105228;1271;61290;-74
2022/06/17 04:31:20;;;;;;;34.80;31.40;;;;;;;15.94;100.00;99300.45;105137;1271;76286;-73
2022/06/17 04:33:57;;;;;;;35.30;32.00;;;;;;;15.93;100.00;99309.27;105217;1271;68248;-73
2022/06/17 04:36:53;;;;;;;35.20;31.80;;;;;;;15.96;100.00;99313.01;105242;1271;72230;-73
2022/06/17 04:39:26;;;;;;;33.80;30.50;;;;;;;15.99;100.00;99318.25;104796;1278;61405;-73
2022/06/17 04:41:56;;;;;;;31.70;28.80;;;;;;;16.06;100.00;99318.65;104760;1277;61241;-73
2022/06/17 04:44:23;;;;;;;29.90;27.10;;;;;;;16.11;100.00;99326.96;104794;1277;75128;-73
2022/06/17 04:46:55;;;;;;;31.10;28.30;;;;;;;16.19;100.00;99329.73;104844;1278;61388;-73
2022/06/17 04:49:25;;;;;;;28.10;25.70;;;;;;;16.22;100.00;99332.48;104765;1277;74245;-74
2022/06/17 04:52:00;;;;;;;;;;;;;;;16.23;100.00;99330.24;104777;1278;61378;-73
2022/06/17 04:54:29;;;;;;;28.70;25.90;;;;;;;16.21;100.00;99331.69;104893;1278;61276;-73
2022/06/17 04:56:58;;;;;;;28.20;25.70;;;;;;;16.21;100.00;99332.58;104818;1277;76434;-73
2022/06/17 04:59:32;;;;;;;26.60;24.30;;;;;;;16.25;100.00;99331.76;104917;1277;68706;-73
2022/06/17 05:02:03;;;;;;;26.60;24.30;;;;;;;16.25;100.00;99333.83;104804;1277;73836;-74
2022/06/17 05:04:30;;;;;;;26.30;23.80;;;;;;;16.21;100.00;99335.14;104845;1277;61463;-74
2022/06/17 05:06:57;;;;;;;26.30;24.00;;;;;;;16.28;100.00;99338.45;104725;1278;61317;-73
2022/06/17 05:09:30;;;;;;;26.20;23.80;;;;;;;16.38;100.00;99334.17;104533;1278;74633;-73
2022/06/17 05:12:05;;;;;;;27.40;24.80;;;;;;;16.42;100.00;99334.91;104808;1277;70514;-73
2022/06/17 05:14:52;;;;;;;27.50;25.00;;;;;;;16.42;100.00;99338.14;104813;1277;73108;-72
2022/06/17 05:17:20;;;;;;;27.00;24.60;;;;;;;16.39;100.00;99338.20;104864;1274;61326;-73
2022/06/17 05:19:48;;;;;;;27.10;24.60;;;;;;;16.45;100.00;99337.75;104938;1272;61306;-75
2022/06/17 05:22:28;;;;;;;26.30;23.90;;;;;;;16.58;100.00;99340.55;105292;1271;75536;-72
2022/06/17 05:25:00;;;;;;;25.30;22.90;;;;;;;16.84;100.00;99342.98;105199;1271;69350;-73
2022/06/17 05:27:26;;;;;;;25.10;23.00;;;;;;;16.99;100.00;99343.09;105135;1271;74698;-74
2022/06/17 05:29:53;;;;;;;23.90;21.90;;;;;;;16.98;100.00;99339.05;105221;1271;61283;-73
2022/06/17 05:32:21;;;;;;;24.50;22.00;;;;;;;17.03;100.00;99342.92;105231;1271;61391;-73
2022/06/17 05:34:48;;;;;;;23.60;21.40;;;;;;;17.03;100.00;99340.95;105307;1271;76937;-73
2022/06/17 05:37:15;;;;;;;23.80;21.80;;;;;;;17.00;100.00;99344.52;105227;1271;70568;-74
2022/06/17 05:39:42;;;;;;;22.60;20.50;;;;;;;16.91;100.00;99352.61;105185;1271;75003;-74
2022/06/17 05:42:12;;;;;;;23.60;21.70;;;;;;;16.88;100.00;99354.48;105211;1271;61393;-74
2022/06/17 05:44:39;;;;;;;21.40;19.60;;;;;;;16.86;100.00;99360.95;105184;1271;62015;-73
2022/06/17 05:47:06;;;;;;;19.80;18.00;;;;;;;16.80;100.00;99363.99;105167;1271;76013;-75
2022/06/17 05:49:33;;;;;;;21.70;19.70;;;;;;;16.75;100.00;99363.11;105202;1271;69440;-74
2022/06/17 05:52:00;;;;;;;22.20;19.90;;;;;;;16.71;100.00;99368.36;105186;1271;73356;-73
2022/06/17 05:54:26;;;;;;;21.40;19.40;;;;;;;16.66;100.00;99368.34;105186;1271;61355;-74
2022/06/17 05:56:53;;;;;;;22.60;20.60;;;;;;;16.60;100.00;99372.63;105176;1271;61205;-74
2022/06/17 05:59:19;;;;;;;21.60;19.80;;;;;;;16.54;100.00;99377.69;105150;1271;61179;-74
2022/06/17 06:01:46;;;;;;;21.90;20.00;;;;;;;16.45;100.00;99383.98;105186;1271;61362;-73
2022/06/17 06:04:13;;;;;;;23.00;20.90;;;;;;;16.42;100.00;99385.88;105243;1271;73351;-74
2022/06/17 06:06:39;;;;;;;22.70;20.60;;;;;;;16.42;100.00;99390.75;105258;1271;61272;-75
2022/06/17 06:09:06;;;;;;;21.80;19.80;;;;;;;16.45;100.00;99390.45;105189;1271;61134;-73
2022/06/17 06:11:33;;;;;;;22.50;20.60;;;;;;;16.49;100.00;99398.05;105184;1271;61314;-74
2022/06/17 06:13:59;;;;;;;22.70;20.70;;;;;;;16.44;100.00;99392.89;105186;1271;61317;-72
2022/06/17 06:16:26;;;;;;;23.80;21.80;;;;;;;16.46;100.00;99394.14;105219;1271;74607;-75
2022/06/17 06:18:52;;;;;;;22.20;20.40;;;;;;;16.64;100.00;99396.17;104990;1271;61166;-74
2022/06/17 06:21:19;;;;;;;22.40;20.40;;;;;;;16.92;100.00;99396.29;105068;1271;61189;-74
2022/06/17 06:23:46;;;;;;;20.90;19.10;;;;;;;17.17;100.00;99399.53;105020;1271;74760;-74
2022/06/17 06:26:17;;;;;;;21.00;19.00;;;;;;;17.81;100.00;99406.05;104996;1271;69248;-73
2022/06/17 06:28:44;;;;;;;22.60;20.80;;;;;;;18.04;100.00;99406.27;105026;1271;74190;-74
2022/06/17 06:31:23;;;;;;;22.40;20.50;;;;;;;17.88;100.00;99404.73;104877;1271;61390;-74
2022/06/17 06:33:50;;;;;;;21.70;19.70;;;;;;;17.90;100.00;99407.25;104950;1271;61405;-74
2022/06/17 06:36:17;;;;;;;21.50;19.50;;;;;;;17.88;100.00;99410.90;105013;1271;75822;-74
2022/06/17 06:38:43;;;;;;;20.30;18.50;;;;;;;17.90;100.00;99412.59;105064;1271;69457;-73
2022/06/17 06:41:10;;;;;;;18.80;17.00;;;;;;;17.99;100.00;99410.90;105016;1271;61563;-74
2022/06/17 06:43:36;;;;;;;17.60;15.90;;;;;;;18.12;100.00;99410.98;105026;1271;61409;-74
2022/06/17 06:46:10;;;;;;;17.70;16.20;;;;;;;18.20;100.00;99409.00;104954;1273;61406;-74
2022/06/17 06:48:37;;;;;;;18.10;16.60;;;;;;;18.30;100.00;99409.91;105007;1274;75221;-75
2022/06/17 06:51:04;;;;;;;16.80;15.10;;;;;;;18.37;100.00;99410.27;105026;1271;68845;-75
2022/06/17 06:53:30;;;;;;;17.00;15.70;;;;;;;18.74;100.00;99412.46;104939;1271;71392;-74
2022/06/17 06:55:57;;;;;;;16.90;15.30;;;;;;;19.16;100.00;99411.34;105131;1271;61326;-74
2022/06/17 06:58:25;;;;;;;15.30;13.90;;;;;;;19.29;100.00;99410.02;105247;1271;61338;-73
2022/06/17 07:00:56;;;;;;;15.70;14.50;;;;;;;19.39;100.00;99406.84;105013;1271;76293;-74
2022/06/17 07:03:25;;;;;;;16.30;14.90;;;;;;;19.30;100.00;99408.35;105204;1271;68663;-74
2022/06/17 07:05:58;;;;;;;14.80;13.40;;;;;;;19.29;100.00;99410.07;105199;1271;73531;-73
2022/06/17 07:08:27;;;;;;;15.00;13.60;;;;;;;19.13;100.00;99409.70;105221;1271;61420;-73
2022/06/17 07:10:56;;;;;;;15.90;14.20;;;;;;;18.91;100.00;99410.50;105201;1271;61949;-74
2022/06/17 07:13:23;;;;;;;15.50;14.10;;;;;;;18.71;100.00;99411.14;105082;1271;76374;-73
2022/06/17 07:15:52;;;;;;;16.60;15.00;;;;;;;18.73;100.00;99414.67;105208;1271;61380;-74
2022/06/17 07:18:25;;;;;;;19.50;17.50;;;;;;;18.83;100.00;99415.01;105221;1271;72747;-73
2022/06/17 07:20:55;;;;;;;17.10;15.30;;;;;;;18.98;100.00;99417.39;105424;1271;61389;-74
2022/06/17 07:23:24;;;;;;;16.60;14.90;;;;;;;19.07;100.00;99418.64;105264;1271;61305;-73
2022/06/17 07:25:52;;;;;;;16.80;15.10;;;;;;;19.06;100.00;99416.95;105366;1271;74380;-74
2022/06/17 07:28:21;;;;;;;17.10;15.30;;;;;;;18.99;100.00;99412.60;105182;1271;69494;-74
2022/06/17 07:30:51;;;;;;;15.00;13.50;;;;;;;18.94;100.00;99413.08;105138;1271;73109;-74
2022/06/17 07:33:18;;;;;;;;;;;;;;;18.91;100.00;99414.63;105225;1271;61304;-74
2022/06/17 07:35:46;;;;;;;16.90;15.30;;;;;;;18.80;100.00;99416.01;105019;1271;60553;-73
2022/06/17 07:41:03;;;;;;;;;;;;;;;18.47;100.00;99418.52;105191;1271;69456;-74
2022/06/17 07:43:30;;;;;;;18.70;17.00;;;;;;;18.27;100.00;99423.61;104995;1270;73137;-75
2022/06/17 07:45:57;;;;;;;18.90;17.20;;;;;;;18.17;100.00;99428.86;104954;1271;61384;-74
2022/06/17 07:48:23;;;;;;;18.60;16.90;;;;;;;18.11;100.00;99426.77;105164;1271;61176;-73
2022/06/17 07:50:50;;;;;;;19.00;17.50;;;;;;;18.04;100.00;99432.61;105201;1271;73852;-75
2022/06/17 07:53:17;;;;;;;18.30;16.50;;;;;;;18.03;100.00;99433.08;105201;1271;61364;-74
2022/06/17 07:55:43;;;;;;;17.50;15.90;;;;;;;18.06;100.00;99438.17;105187;1271;72388;-74
2022/06/17 07:58:12;;;;;;;17.20;15.60;;;;;;;18.13;100.00;99440.25;105183;1271;61391;-74
2022/06/17 08:00:41;;;;;;;15.70;14.10;;;;;;;18.27;100.00;99444.15;105285;1271;61326;-74
2022/06/17 08:03:09;;;;;;;15.90;14.40;;;;;;;18.46;100.00;99439.85;105240;1270;76193;-73
2022/06/17 08:05:37;;;;;;;15.50;14.00;;;;;;;18.63;100.00;99440.23;105248;1271;69134;-73
2022/06/17 08:08:04;;;;;;;15.20;13.70;;;;;;;18.73;100.00;99445.43;105191;1271;73232;-74
2022/06/17 08:10:33;;;;;;;14.30;12.80;;;;;;;18.81;100.00;99445.11;105119;1271;61288;-73
2022/06/17 08:13:00;;;;;;;14.60;13.10;;;;;;;18.87;100.00;99449.20;105214;1271;61389;-73
2022/06/17 08:15:27;;;;;;;15.00;13.50;;;;;;;18.80;100.00;99445.40;105144;1270;76210;-74
2022/06/17 08:17:54;;;;;;;14.40;12.40;;;;;;;18.69;100.00;99445.35;104970;1272;70761;-74
2022/06/17 08:20:31;;;;;;;15.30;13.70;;;;;;;18.73;100.00;99447.23;105198;1271;73592;-75
2022/06/17 08:22:58;;;;;;;15.80;13.10;;;;;;;18.74;100.00;99449.33;105215;1271;61313;-73
2022/06/17 08:25:25;;;;;;;18.10;15.00;;;;;;;18.74;100.00;99452.78;105264;1271;61360;-74
2022/06/17 08:27:56;;;;;;;17.10;15.30;;;;;;;18.71;100.00;99455.89;105205;1271;76373;-74
2022/06/17 08:30:30;;;;;;;15.60;14.00;;;;;;;18.63;100.00;99457.20;105243;1271;70202;-75
2022/06/17 08:32:56;;;;;;;17.40;13.80;;;;;;;18.48;100.00;99463.77;105212;1270;73244;-74
2022/06/17 08:35:28;;;;;;;16.90;15.20;;;;;;;18.39;100.00;99476.32;105191;1271;61394;-74
2022/06/17 08:38:01;;;;;;;17.20;13.80;;;;;;;18.39;100.00;99475.04;105248;1271;61245;-74
2022/06/17 08:40:36;;;;;;;16.90;14.10;;;;;;;18.45;100.00;99480.24;105254;1271;75136;-74
2022/06/17 08:43:21;;;;;;;16.60;14.20;;;;;;;18.49;100.00;99481.95;105238;1271;69890;-75
2022/06/17 08:46:10;;;;;;;16.70;15.00;;;;;;;18.49;100.00;99481.02;105021;1271;73572;-75
2022/06/17 08:49:10;;;;;;;16.80;15.10;;;;;;;18.58;100.00;99475.48;105255;1271;61540;-75
2022/06/17 08:51:36;;;;;;;;;;;;;;;18.81;100.00;99485.44;105226;1271;61406;-74
2022/06/17 08:54:06;;;;;;;18.10;15.90;;;;;;;19.00;100.00;99489.91;105038;1271;61303;-73
2022/06/17 08:56:42;;;;;;;17.90;15.90;;;;;;;19.12;100.00;99500.02;105187;1271;69153;-73
2022/06/17 08:59:30;;;;;;;17.80;16.00;;;;;;;19.26;100.00;99503.15;105208;1271;73405;-74
2022/06/17 09:02:33;;;;;;;17.70;15.60;;;;;;;19.54;100.00;99502.67;105191;1270;61289;-73
2022/06/17 09:05:18;;;;;;;19.60;17.40;;;;;;;19.70;100.00;99510.88;105191;1271;61757;-74
2022/06/17 09:08:36;;;;;;;20.20;18.10;;;;;;;19.67;100.00;99512.19;105188;1271;76051;-74
2022/06/17 09:11:29;;;;;;;19.10;17.10;;;;;;;19.90;100.00;99515.09;104517;1278;69140;-74
2022/06/17 09:14:07;;;;;;;20.10;18.00;;;;;;;20.30;100.00;99515.95;104495;1278;73342;-74
2022/06/17 09:16:46;;;;;;;20.90;17.40;;;;;;;20.79;100.00;99515.61;104478;1277;61380;-75
2022/06/17 09:19:20;;;;;;;20.20;18.20;;;;;;;21.00;100.00;99522.73;104524;1278;61302;-74
2022/06/17 09:21:49;;;;;;;20.90;17.80;;;;;;;20.81;100.00;99531.72;104489;1278;76321;-72
2022/06/17 09:24:26;;;;;;;22.80;20.30;;;;;;;20.60;100.00;99536.36;104411;1280;70314;-75
2022/06/17 09:27:04;;;;;;;27.50;24.20;;;;;;;20.50;100.00;99539.08;104493;1278;73460;-73
2022/06/17 09:29:53;;;;;;;27.30;24.20;;;;;;;20.51;100.00;99538.63;104574;1278;61494;-74
2022/06/17 09:32:37;;;;;;;27.40;24.60;;;;;;;20.65;100.00;99536.77;104481;1277;61300;-77
2022/06/17 09:35:36;;;;;;;27.20;23.20;;;;;;;20.90;100.00;99532.96;104586;1277;76419;-74
2022/06/17 09:38:12;;;;;;;27.70;24.80;;;;;;;21.08;100.00;99528.62;104044;1285;70146;-74
2022/06/17 09:40:50;;;;;;;26.40;23.80;;;;;;;21.32;100.00;99533.04;103976;1285;73996;-74
2022/06/17 09:43:32;;;;;;;25.00;22.30;;;;;;;21.56;100.00;99527.42;103925;1285;61771;-74
2022/06/17 09:46:08;;;;;;;23.00;20.80;;;;;;;21.76;100.00;99528.42;104020;1280;61211;-75
2022/06/17 09:49:02;;;;;;;22.40;20.20;;;;;;;21.73;100.00;99527.85;104698;1277;75739;-75
2022/06/17 09:51:31;;;;;;;21.40;19.30;;;;;;;21.67;100.00;99523.76;104582;1277;67334;-74
2022/06/17 09:54:16;;;;;;;20.00;18.20;;;;;;;21.77;100.00;99517.08;104577;1277;73637;-76
2022/06/17 09:57:05;;;;;;;18.50;16.70;;;;;;;22.07;100.00;99511.52;104630;1277;61338;-76
2022/06/17 09:59:38;;;;;;;17.30;15.90;;;;;;;22.53;100.00;99508.14;104637;1277;61515;-76
2022/06/17 10:02:33;;;;;;;16.10;14.50;;;;;;;22.92;100.00;99503.86;104615;1277;75434;-76
2022/06/17 10:05:11;;;;;;;14.20;12.80;;;;;;;23.37;100.00;99512.70;104624;1277;69268;-76
2022/06/17 10:07:50;;;;;;;12.70;11.50;;;;;;;23.60;100.00;99515.80;104621;1277;73730;-76
2022/06/17 10:10:31;;;;;;;12.70;11.50;;;;;;;23.49;100.00;99518.48;104619;1277;61365;-75
2022/06/17 10:13:07;;;;;;;11.20;10.10;;;;;;;23.01;100.00;99517.86;104628;1277;61829;-76
2022/06/17 10:18:48;;;;;;;9.70;8.30;;;;;;;22.16;100.00;99522.52;104517;1278;69623;-76
2022/06/17 10:21:30;;;;;;;9.70;8.80;;;;;;;21.93;100.00;99524.15;104581;1277;61348;-76
2022/06/17 10:24:24;;;;;;;9.90;9.00;;;;;;;21.98;100.00;99519.77;104538;1277;61419;-76
2022/06/17 10:26:56;;;;;;;8.80;7.90;;;;;;;22.22;100.00;99517.45;104622;1277;62224;-75
2022/06/17 10:29:40;;;;;;;8.10;7.50;;;;;;;22.30;100.00;99515.44;104626;1277;74816;-77
2022/06/17 10:32:07;;;;;;;9.20;8.30;;;;;;;22.44;100.00;99514.92;104643;1277;69240;-75
2022/06/17 10:34:48;;;;;;;8.90;8.00;;;;;;;22.39;100.00;99513.48;104600;1277;74332;-75
2022/06/17 10:37:16;;;;;;;9.50;7.40;;;;;;;22.36;100.00;99508.73;104574;1277;61291;-75
2022/06/17 10:39:54;;;;;;;8.10;7.10;;;;;;;22.60;100.00;99505.42;104691;1277;62025;-76
2022/06/17 10:42:23;;;;;;;7.80;7.00;;;;;;;23.03;100.00;99498.27;104642;1277;75231;-76
2022/06/17 10:44:53;;;;;;;8.30;6.50;;;;;;;23.62;100.00;99497.16;104626;1277;69381;-76
2022/06/17 10:47:23;;;;;;;6.70;6.10;;;;;;;24.13;100.00;99501.15;104668;1274;74433;-76
2022/06/17 10:49:56;;;;;;;6.00;5.30;;;;;;;24.58;100.00;99506.10;104562;1277;61363;-76
2022/06/17 10:52:32;;;;;;;6.80;5.10;;;;;;;24.63;100.00;99504.77;104531;1277;61932;-76
2022/06/17 10:55:03;;;;;;;6.60;5.90;;;;;;;24.66;100.00;99501.27;104784;1271;75229;-75
2022/06/17 10:57:32;;;;;;;6.00;5.60;;;;;;;24.48;100.00;99503.21;105193;1271;69361;-76
2022/06/17 10:59:59;;;;;;;;;;;;;;;24.11;100.00;99498.23;105248;1271;73533;-75
2022/06/17 11:02:30;;;;;;;10.90;5.20;;;;;;;23.87;99.91;99500.60;105071;1271;61317;-76
2022/06/17 11:05:05;;;;;;;3.80;3.30;;;;;;;23.67;99.91;99496.94;105207;1271;61170;-76
2022/06/17 11:07:50;;;;;;;4.70;3.50;;;;;;;23.58;99.88;99491.42;105087;1271;76230;-76
2022/06/17 11:10:23;;;;;;;4.00;3.60;;;;;;;23.50;100.00;99492.13;105027;1271;70374;-76
2022/06/17 11:13:04;;;;;;;2.80;2.50;;;;;;;23.32;100.00;99500.31;105223;1271;74480;-74
2022/06/17 11:15:36;;;;;;;3.80;2.80;;;;;;;23.12;99.72;99499.87;105249;1271;61361;-75
2022/06/17 11:18:17;;;;;;;5.90;2.90;;;;;;;23.14;99.90;99499.02;105254;1271;61249;-74
2022/06/17 11:21:02;;;;;;;3.80;2.30;;;;;;;23.48;100.00;99496.72;105206;1271;75157;-74
2022/06/17 11:23:47;;;;;;;3.50;2.50;;;;;;;23.93;99.77;99491.64;105193;1271;69393;-76
2022/06/17 11:26:19;;;;;;;2.90;2.40;;;;;;;24.16;100.00;99486.47;105248;1271;73165;-76
2022/06/17 11:28:50;;;;;;;4.20;2.50;;;;;;;24.34;100.00;99490.69;105233;1271;61502;-76
2022/06/17 11:31:19;;;;;;;5.20;2.70;;;;;;;24.24;99.74;99494.73;104981;1272;61153;-75
2022/06/17 11:33:52;;;;;;;2.60;2.10;;;;;;;23.95;97.71;99494.25;105184;1270;75183;-75
2022/06/17 11:36:25;;;;;;;3.80;1.90;;;;;;;23.64;95.34;99492.02;105223;1271;69141;-75
2022/06/17 11:38:52;;;;;;;2.00;1.90;;;;;;;23.37;93.05;99501.23;105392;1271;74504;-76